sensor_id;sensor_type;location;lat;lon;timestamp;pressure;altitude;pressure_sealevel;temperature;humidity
24620;BME280;12763;55.802;37.404;2022-07-05T00:07:08;99354.16;;;28.36;43.03
24620;BME280;12763;55.802;37.404;2022-07-05T00:10:06;99349.19;;;28.33;43.48
24620;BME280;12763;55.802;37.404;2022-07-05T00:13:00;99353.66;;;28.34;43.30
24620;BME280;12763;55.802;37.404;2022-07-05T00:15:32;99356.19;;;28.27;43.53
24620;BME280;12763;55.802;37.404;2022-07-05T00:18:04;99360.38;;;28.21;43.66
24620;BME280;12763;55.802;37.404;2022-07-05T00:20:58;99355.38;;;28.18;44.09
24620;BME280;12763;55.802;37.404;2022-07-05T00:27:11;99363.13;;;28.09;43.89
24620;BME280;12763;55.802;37.404;2022-07-05T00:29:43;99361.94;;;28.10;44.15
24620;BME280;12763;55.802;37.404;2022-07-05T00:32:45;99364.56;;;28.15;44.22
24620;BME280;12763;55.802;37.404;2022-07-05T00:35:13;99366.75;;;28.09;44.24
24620;BME280;12763;55.802;37.404;2022-07-05T00:37:42;99370.91;;;28.12;44.32
24620;BME280;12763;55.802;37.404;2022-07-05T00:40:32;99374.94;;;28.11;44.82
24620;BME280;12763;55.802;37.404;2022-07-05T00:43:07;99370.44;;;27.92;45.19
24620;BME280;12763;55.802;37.404;2022-07-05T00:45:36;99372.97;;;27.85;45.28
24620;BME280;12763;55.802;37.404;2022-07-05T00:48:08;99368.81;;;27.83;45.39
24620;BME280;12763;55.802;37.404;2022-07-05T00:50:37;99372.47;;;27.92;44.88
24620;BME280;12763;55.802;37.404;2022-07-05T00:53:27;99364.44;;;28.11;44.63
24620;BME280;12763;55.802;37.404;2022-07-05T00:56:27;99366.03;;;28.29;43.91
24620;BME280;12763;55.802;37.404;2022-07-05T00:59:02;99371.47;;;28.43;43.97
24620;BME280;12763;55.802;37.404;2022-07-05T01:04:31;99379.31;;;28.46;44.57
24620;BME280;12763;55.802;37.404;2022-07-05T01:07:00;99374.47;;;28.09;46.06
24620;BME280;12763;55.802;37.404;2022-07-05T01:09:51;99372.97;;;27.85;46.59
24620;BME280;12763;55.802;37.404;2022-07-05T01:16:02;99373.47;;;27.19;51.06
24620;BME280;12763;55.802;37.404;2022-07-05T01:18:35;99379.31;;;27.14;51.69
24620;BME280;12763;55.802;37.404;2022-07-05T01:21:17;99380.78;;;27.11;52.47
24620;BME280;12763;55.802;37.404;2022-07-05T01:23:51;99369.97;;;27.22;51.80
24620;BME280;12763;55.802;37.404;2022-07-05T01:26:26;99368.31;;;27.38;51.66
24620;BME280;12763;55.802;37.404;2022-07-05T01:29:20;99367.31;;;27.51;50.44
24620;BME280;12763;55.802;37.404;2022-07-05T01:31:59;99357.66;;;27.69;49.08
24620;BME280;12763;55.802;37.404;2022-07-05T01:34:37;99373.34;;;27.75;48.39
24620;BME280;12763;55.802;37.404;2022-07-05T01:37:29;99369.94;;;27.90;49.34
24620;BME280;12763;55.802;37.404;2022-07-05T01:40:03;99369.28;;;27.85;49.56
24620;BME280;12763;55.802;37.404;2022-07-05T01:42:35;99364.66;;;27.63;50.67
24620;BME280;12763;55.802;37.404;2022-07-05T01:45:07;99363.34;;;27.52;50.96
24620;BME280;12763;55.802;37.404;2022-07-05T01:47:49;99362.50;;;27.69;51.01
24620;BME280;12763;55.802;37.404;2022-07-05T01:50:16;99365.66;;;27.67;51.08
24620;BME280;12763;55.802;37.404;2022-07-05T01:53:17;99355.00;;;27.64;51.26
24620;BME280;12763;55.802;37.404;2022-07-05T01:55:44;99353.63;;;27.79;51.24
24620;BME280;12763;55.802;37.404;2022-07-05T01:58:13;99359.78;;;27.89;51.60
24620;BME280;12763;55.802;37.404;2022-07-05T02:00:51;99359.47;;;27.82;51.83
24620;BME280;12763;55.802;37.404;2022-07-05T02:04:06;99354.66;;;27.74;52.46
24620;BME280;12763;55.802;37.404;2022-07-05T02:06:42;99354.66;;;27.74;52.31
24620;BME280;12763;55.802;37.404;2022-07-05T02:09:11;99351.31;;;27.72;52.65
24620;BME280;12763;55.802;37.404;2022-07-05T02:11:41;99356.28;;;27.84;52.57
24620;BME280;12763;55.802;37.404;2022-07-05T02:14:11;99357.94;;;27.93;51.77
24620;BME280;12763;55.802;37.404;2022-07-05T02:20:31;99371.53;;;28.26;50.93
24620;BME280;12763;55.802;37.404;2022-07-05T02:23:12;99372.09;;;28.19;51.79
24620;BME280;12763;55.802;37.404;2022-07-05T02:25:42;99372.22;;;28.23;51.54
24620;BME280;12763;55.802;37.404;2022-07-05T02:28:13;99370.03;;;28.28;51.14
24620;BME280;12763;55.802;37.404;2022-07-05T02:31:18;99376.38;;;28.25;51.55
24620;BME280;12763;55.802;37.404;2022-07-05T02:34:22;99376.72;;;28.24;52.38
24620;BME280;12763;55.802;37.404;2022-07-05T02:36:49;99371.91;;;28.16;51.71
24620;BME280;12763;55.802;37.404;2022-07-05T02:39:33;99370.75;;;28.17;52.14
24620;BME280;12763;55.802;37.404;2022-07-05T02:42:04;99366.44;;;28.02;51.41
24620;BME280;12763;55.802;37.404;2022-07-05T02:44:31;99369.94;;;28.16;51.21
24620;BME280;12763;55.802;37.404;2022-07-05T02:47:59;99366.06;;;28.21;50.91
24620;BME280;12763;55.802;37.404;2022-07-05T02:50:30;99360.84;;;28.31;50.93
24620;BME280;12763;55.802;37.404;2022-07-05T02:53:05;99371.06;;;28.24;49.57
24620;BME280;12763;55.802;37.404;2022-07-05T02:55:41;99368.28;;;28.07;49.84
24620;BME280;12763;55.802;37.404;2022-07-05T03:01:20;99380.94;;;28.00;48.91
24620;BME280;12763;55.802;37.404;2022-07-05T03:03:53;99380.91;;;28.18;49.40
24620;BME280;12763;55.802;37.404;2022-07-05T03:06:45;99389.44;;;28.18;49.41
24620;BME280;12763;55.802;37.404;2022-07-05T03:09:17;99391.09;;;28.19;48.28
24620;BME280;12763;55.802;37.404;2022-07-05T03:15:37;99385.47;;;28.48;46.86
24620;BME280;12763;55.802;37.404;2022-07-05T03:18:09;99378.09;;;28.64;46.49
24620;BME280;12763;55.802;37.404;2022-07-05T03:21:00;99390.44;;;28.68;46.40
24620;BME280;12763;55.802;37.404;2022-07-05T03:24:11;99391.81;;;28.91;45.21
24620;BME280;12763;55.802;37.404;2022-07-05T03:26:48;99388.41;;;28.98;44.77
24620;BME280;12763;55.802;37.404;2022-07-05T03:29:14;99385.31;;;28.91;44.95
24620;BME280;12763;55.802;37.404;2022-07-05T03:31:42;99391.66;;;28.88;44.66
24620;BME280;12763;55.802;37.404;2022-07-05T03:34:11;99395.19;;;28.85;44.77
24620;BME280;12763;55.802;37.404;2022-07-05T03:37:01;99398.56;;;29.07;44.51
24620;BME280;12763;55.802;37.404;2022-07-05T03:39:30;99398.91;;;29.06;44.49
24620;BME280;12763;55.802;37.404;2022-07-05T03:42:27;99399.47;;;28.99;44.34
24620;BME280;12763;55.802;37.404;2022-07-05T03:44:56;99399.31;;;28.96;44.40
24620;BME280;12763;55.802;37.404;2022-07-05T03:47:29;99402.56;;;29.06;44.15
24620;BME280;12763;55.802;37.404;2022-07-05T03:50:17;99410.34;;;29.18;43.99
24620;BME280;12763;55.802;37.404;2022-07-05T03:52:43;99407.56;;;29.09;44.11
24620;BME280;12763;55.802;37.404;2022-07-05T03:55:25;99408.00;;;29.20;44.25
24620;BME280;12763;55.802;37.404;2022-07-05T04:02:04;99415.94;;;29.56;43.38
24620;BME280;12763;55.802;37.404;2022-07-05T04:04:33;99409.97;;;29.69;43.38
24620;BME280;12763;55.802;37.404;2022-07-05T04:07:06;99408.72;;;29.79;43.51
24620;BME280;12763;55.802;37.404;2022-07-05T04:09:59;99413.56;;;29.79;43.63
24620;BME280;12763;55.802;37.404;2022-07-05T04:15:44;99414.91;;;29.81;43.85
24620;BME280;12763;55.802;37.404;2022-07-05T04:18:14;99410.91;;;29.82;44.05
24620;BME280;12763;55.802;37.404;2022-07-05T04:21:03;99405.69;;;29.84;44.36
24620;BME280;12763;55.802;37.404;2022-07-05T04:23:36;99405.28;;;29.74;44.65
24620;BME280;12763;55.802;37.404;2022-07-05T04:26:09;99404.97;;;29.66;44.96
24620;BME280;12763;55.802;37.404;2022-07-05T04:29:13;99416.84;;;29.48;45.18
24620;BME280;12763;55.802;37.404;2022-07-05T04:31:45;99412.22;;;29.43;45.61
24620;BME280;12763;55.802;37.404;2022-07-05T04:34:23;99412.44;;;29.38;45.77
24620;BME280;12763;55.802;37.404;2022-07-05T04:37:20;99411.06;;;29.36;45.57
24620;BME280;12763;55.802;37.404;2022-07-05T04:40:14;99407.84;;;29.46;45.82
24620;BME280;12763;55.802;37.404;2022-07-05T04:42:49;99414.84;;;29.48;46.03
24620;BME280;12763;55.802;37.404;2022-07-05T04:45:22;99410.00;;;29.49;45.75
24620;BME280;12763;55.802;37.404;2022-07-05T04:51:58;99409.59;;;29.80;45.51
24620;BME280;12763;55.802;37.404;2022-07-05T04:54:30;99399.34;;;29.99;45.94
24620;BME280;12763;55.802;37.404;2022-07-05T04:56:56;99404.00;;;30.16;44.53
24620;BME280;12763;55.802;37.404;2022-07-05T04:59:22;99407.94;;;30.11;44.69
24620;BME280;12763;55.802;37.404;2022-07-05T05:01:54;99410.06;;;30.14;44.34
24620;BME280;12763;55.802;37.404;2022-07-05T05:04:26;99408.53;;;30.17;44.08
24620;BME280;12763;55.802;37.404;2022-07-05T05:06:52;99408.19;;;30.18;43.50
24620;BME280;12763;55.802;37.404;2022-07-05T05:09:24;99413.91;;;30.31;43.49
24620;BME280;12763;55.802;37.404;2022-07-05T05:12:28;99417.06;;;30.38;43.58
24620;BME280;12763;55.802;37.404;2022-07-05T05:14:59;99413.06;;;30.30;42.63
24620;BME280;12763;55.802;37.404;2022-07-05T05:17:34;99410.63;;;30.08;43.00
24620;BME280;12763;55.802;37.404;2022-07-05T05:21:27;99418.25;;;30.16;43.09
24620;BME280;12763;55.802;37.404;2022-07-05T05:24:02;99412.59;;;30.28;43.05
24620;BME280;12763;55.802;37.404;2022-07-05T05:26:29;99414.22;;;30.50;42.19
24620;BME280;12763;55.802;37.404;2022-07-05T05:32:04;99413.50;;;30.53;42.25
24620;BME280;12763;55.802;37.404;2022-07-05T05:38:57;99413.00;;;30.96;41.96
24620;BME280;12763;55.802;37.404;2022-07-05T05:41:23;99410.31;;;30.91;41.23
24620;BME280;12763;55.802;37.404;2022-07-05T05:47:56;99401.44;;;30.80;41.90
24620;BME280;12763;55.802;37.404;2022-07-05T05:50:31;99408.09;;;31.08;41.17
24620;BME280;12763;55.802;37.404;2022-07-05T05:52:57;99406.31;;;31.16;40.72
24620;BME280;12763;55.802;37.404;2022-07-05T05:55:24;99404.06;;;31.09;41.21
24620;BME280;12763;55.802;37.404;2022-07-05T05:57:51;99404.28;;;31.28;40.80
24620;BME280;12763;55.802;37.404;2022-07-05T06:00:18;99406.00;;;31.57;40.29
24620;BME280;12763;55.802;37.404;2022-07-05T06:02:47;99403.25;;;31.73;39.69
24620;BME280;12763;55.802;37.404;2022-07-05T06:05:13;99401.84;;;31.67;40.19
24620;BME280;12763;55.802;37.404;2022-07-05T06:33:49;99392.09;;;32.23;37.82
24620;BME280;12763;55.802;37.404;2022-07-05T06:36:15;99390.31;;;32.03;37.71
24620;BME280;12763;55.802;37.404;2022-07-05T06:38:41;99390.44;;;32.38;37.49
24620;BME280;12763;55.802;37.404;2022-07-05T06:41:07;99395.00;;;32.54;37.44
24620;BME280;12763;55.802;37.404;2022-07-05T06:51:45;99389.44;;;32.30;36.38
24620;BME280;12763;55.802;37.404;2022-07-05T06:54:12;99385.78;;;32.02;36.59
24620;BME280;12763;55.802;37.404;2022-07-05T06:56:44;99386.16;;;32.01;35.68
24620;BME280;12763;55.802;37.404;2022-07-05T06:59:12;99386.16;;;32.01;35.91
24620;BME280;12763;55.802;37.404;2022-07-05T07:01:41;99386.47;;;32.11;35.75
24620;BME280;12763;55.802;37.404;2022-07-05T07:04:32;99376.59;;;32.09;36.75
24620;BME280;12763;55.802;37.404;2022-07-05T07:06:58;99376.22;;;31.82;36.85
24620;BME280;12763;55.802;37.404;2022-07-05T07:12:30;99372.69;;;32.44;35.46
24620;BME280;12763;55.802;37.404;2022-07-05T07:15:02;99378.16;;;32.65;36.13
24620;BME280;12763;55.802;37.404;2022-07-05T07:17:34;99379.91;;;32.70;35.13
24620;BME280;12763;55.802;37.404;2022-07-05T07:20:07;99382.00;;;32.73;35.54
24620;BME280;12763;55.802;37.404;2022-07-05T07:22:33;99370.50;;;32.53;35.46
24620;BME280;12763;55.802;37.404;2022-07-05T07:25:05;99375.47;;;32.88;34.55
24620;BME280;12763;55.802;37.404;2022-07-05T07:28:05;99371.31;;;33.17;34.79
24620;BME280;12763;55.802;37.404;2022-07-05T07:30:50;99383.38;;;33.10;34.83
24620;BME280;12763;55.802;37.404;2022-07-05T07:33:28;99381.03;;;32.81;34.14
24620;BME280;12763;55.802;37.404;2022-07-05T07:36:21;99382.78;;;32.70;34.39
24620;BME280;12763;55.802;37.404;2022-07-05T07:38:47;99379.81;;;32.97;33.89
24620;BME280;12763;55.802;37.404;2022-07-05T07:41:26;99375.00;;;32.86;33.83
24620;BME280;12763;55.802;37.404;2022-07-05T07:43:52;99388.19;;;32.90;34.35
24620;BME280;12763;55.802;37.404;2022-07-05T07:49:42;99386.38;;;32.67;34.03
24620;BME280;12763;55.802;37.404;2022-07-05T07:52:20;99393.44;;;32.88;34.35
24620;BME280;12763;55.802;37.404;2022-07-05T07:54:46;99389.38;;;32.89;34.11
24620;BME280;12763;55.802;37.404;2022-07-05T07:57:39;99398.25;;;32.69;34.13
24620;BME280;12763;55.802;37.404;2022-07-05T08:00:27;99388.75;;;32.65;34.40
24620;BME280;12763;55.802;37.404;2022-07-05T08:03:05;99385.06;;;32.64;33.65
24620;BME280;12763;55.802;37.404;2022-07-05T08:05:41;99379.91;;;32.70;33.69
24620;BME280;12763;55.802;37.404;2022-07-05T08:08:31;99381.19;;;32.88;33.90
24620;BME280;12763;55.802;37.404;2022-07-05T08:11:16;99374.22;;;32.70;34.18
24620;BME280;12763;55.802;37.404;2022-07-05T08:13:42;99376.69;;;32.71;34.03
24620;BME280;12763;55.802;37.404;2022-07-05T08:16:23;99376.78;;;32.75;33.57
24620;BME280;12763;55.802;37.404;2022-07-05T08:18:49;99374.19;;;32.85;34.05
24620;BME280;12763;55.802;37.404;2022-07-05T08:21:39;99364.47;;;32.90;34.21
24620;BME280;12763;55.802;37.404;2022-07-05T08:24:11;99369.66;;;33.00;34.81
24620;BME280;12763;55.802;37.404;2022-07-05T08:26:43;99364.97;;;32.92;34.56
24620;BME280;12763;55.802;37.404;2022-07-05T08:29:13;99361.00;;;32.96;34.38
24620;BME280;12763;55.802;37.404;2022-07-05T08:31:47;99359.94;;;33.20;34.32
24620;BME280;12763;55.802;37.404;2022-07-05T08:34:38;99359.03;;;33.16;34.43
24620;BME280;12763;55.802;37.404;2022-07-05T08:37:13;99376.75;;;33.06;34.35
24620;BME280;12763;55.802;37.404;2022-07-05T08:39:48;99373.78;;;33.18;32.92
24620;BME280;12763;55.802;37.404;2022-07-05T08:42:24;99369.72;;;33.19;33.33
24620;BME280;12763;55.802;37.404;2022-07-05T08:44:58;99366.22;;;33.45;32.78
24620;BME280;12763;55.802;37.404;2022-07-05T08:47:24;99348.25;;;34.02;32.46
24620;BME280;12763;55.802;37.404;2022-07-05T08:49:53;99354.44;;;34.46;32.45
24620;BME280;12763;55.802;37.404;2022-07-05T08:52:25;99344.38;;;34.78;31.85
24620;BME280;12763;55.802;37.404;2022-07-05T08:55:10;99344.69;;;34.96;31.59
24620;BME280;12763;55.802;37.404;2022-07-05T08:57:43;99348.25;;;34.66;31.85
24620;BME280;12763;55.802;37.404;2022-07-05T09:00:15;99356.53;;;34.26;32.25
24620;BME280;12763;55.802;37.404;2022-07-05T09:02:41;99354.25;;;34.35;32.17
24620;BME280;12763;55.802;37.404;2022-07-05T09:05:23;99349.41;;;34.39;32.02
24620;BME280;12763;55.802;37.404;2022-07-05T09:08:14;99351.16;;;34.05;31.96
24620;BME280;12763;55.802;37.404;2022-07-05T09:10:43;99342.69;;;33.90;32.55
24620;BME280;12763;55.802;37.404;2022-07-05T09:13:12;99344.78;;;33.54;32.34
24620;BME280;12763;55.802;37.404;2022-07-05T09:15:42;99341.75;;;33.47;32.32
24620;BME280;12763;55.802;37.404;2022-07-05T09:18:11;99339.94;;;33.39;32.66
24620;BME280;12763;55.802;37.404;2022-07-05T09:20:49;99338.00;;;33.43;32.29
24620;BME280;12763;55.802;37.404;2022-07-05T09:23:20;99341.00;;;33.50;32.40
24620;BME280;12763;55.802;37.404;2022-07-05T09:25:46;99340.13;;;33.46;32.67
24620;BME280;12763;55.802;37.404;2022-07-05T09:28:33;99337.03;;;33.36;33.03
24620;BME280;12763;55.802;37.404;2022-07-05T09:31:02;99353.34;;;32.85;34.25
24620;BME280;12763;55.802;37.404;2022-07-05T09:34:15;99346.78;;;33.00;34.37
24620;BME280;12763;55.802;37.404;2022-07-05T09:36:55;99351.69;;;33.53;33.48
24620;BME280;12763;55.802;37.404;2022-07-05T09:42:37;99337.13;;;33.97;33.20
24620;BME280;12763;55.802;37.404;2022-07-05T09:45:09;99327.50;;;33.86;33.30
24620;BME280;12763;55.802;37.404;2022-07-05T09:47:50;99333.56;;;34.03;33.60
24620;BME280;12763;55.802;37.404;2022-07-05T09:50:49;99337.25;;;34.04;34.38
24620;BME280;12763;55.802;37.404;2022-07-05T09:53:22;99323.06;;;34.07;33.96
24620;BME280;12763;55.802;37.404;2022-07-05T09:56:01;99328.97;;;34.63;33.38
24620;BME280;12763;55.802;37.404;2022-07-05T10:01:37;99332.22;;;35.37;31.40
24620;BME280;12763;55.802;37.404;2022-07-05T10:04:10;99325.16;;;35.31;32.24
24620;BME280;12763;55.802;37.404;2022-07-05T10:06:42;99328.25;;;35.19;31.93
24620;BME280;12763;55.802;37.404;2022-07-05T10:09:18;99326.72;;;34.99;33.00
24620;BME280;12763;55.802;37.404;2022-07-05T10:11:45;99314.13;;;34.80;33.07
24620;BME280;12763;55.802;37.404;2022-07-05T10:14:15;99319.94;;;34.61;34.19
24620;BME280;12763;55.802;37.404;2022-07-05T10:17:16;99306.44;;;35.11;32.81
24620;BME280;12763;55.802;37.404;2022-07-05T10:19:45;99304.72;;;35.36;33.35
24620;BME280;12763;55.802;37.404;2022-07-05T10:22:12;99317.91;;;35.11;32.97
24620;BME280;12763;55.802;37.404;2022-07-05T10:25:03;99309.00;;;34.67;34.64
24620;BME280;12763;55.802;37.404;2022-07-05T10:28:00;99304.66;;;34.31;34.72
24620;BME280;12763;55.802;37.404;2022-07-05T10:30:29;99308.63;;;34.04;35.28
24620;BME280;12763;55.802;37.404;2022-07-05T10:33:07;99307.16;;;33.91;35.11
24620;BME280;12763;55.802;37.404;2022-07-05T10:36:04;99288.19;;;33.83;35.82
24620;BME280;12763;55.802;37.404;2022-07-05T10:38:35;99293.66;;;33.53;35.01
24620;BME280;12763;55.802;37.404;2022-07-05T10:41:11;99289.94;;;33.68;35.85
24620;BME280;12763;55.802;37.404;2022-07-05T10:44:02;99296.22;;;33.96;34.51
24620;BME280;12763;55.802;37.404;2022-07-05T11:26:22;99308.19;;;36.12;31.06
24620;BME280;12763;55.802;37.404;2022-07-05T11:28:48;99299.69;;;36.66;30.08
24620;BME280;12763;55.802;37.404;2022-07-05T11:39:24;99308.09;;;36.92;29.53
24620;BME280;12763;55.802;37.404;2022-07-05T11:41:52;99303.72;;;36.18;31.28
24620;BME280;12763;55.802;37.404;2022-07-05T11:44:18;99297.09;;;34.91;33.31
24620;BME280;12763;55.802;37.404;2022-07-05T11:46:45;99286.13;;;34.25;34.58
24620;BME280;12763;55.802;37.404;2022-07-05T11:49:19;99295.59;;;34.06;35.69
24620;BME280;12763;55.802;37.404;2022-07-05T13:58:49;99330.19;;;25.39;66.20
24620;BME280;12763;55.802;37.404;2022-07-05T14:01:15;99341.34;;;25.44;65.78
24620;BME280;12763;55.802;37.404;2022-07-05T14:03:42;99339.50;;;25.39;66.03
24620;BME280;12763;55.802;37.404;2022-07-05T14:06:36;99335.16;;;25.55;66.10
24620;BME280;12763;55.802;37.404;2022-07-05T14:09:15;99346.94;;;25.80;65.44
24620;BME280;12763;55.802;37.404;2022-07-05T14:11:44;99361.28;;;25.61;66.15
24620;BME280;12763;55.802;37.404;2022-07-05T14:14:16;99365.78;;;25.84;67.57
24620;BME280;12763;55.802;37.404;2022-07-05T14:16:45;99382.47;;;25.72;67.35
24620;BME280;12763;55.802;37.404;2022-07-05T14:19:26;99377.16;;;25.48;68.01
24620;BME280;12763;55.802;37.404;2022-07-05T14:21:58;99388.31;;;25.76;66.38
24620;BME280;12763;55.802;37.404;2022-07-05T14:24:49;99384.19;;;26.04;67.08
24620;BME280;12763;55.802;37.404;2022-07-05T14:27:21;99385.00;;;25.74;69.81
24620;BME280;12763;55.802;37.404;2022-07-05T14:29:56;99378.75;;;25.63;68.56
24620;BME280;12763;55.802;37.404;2022-07-05T14:32:29;99390.38;;;25.84;69.06
24620;BME280;12763;55.802;37.404;2022-07-05T14:35:04;99392.78;;;25.99;68.73
24620;BME280;12763;55.802;37.404;2022-07-05T14:37:34;99422.38;;;26.15;67.24
24620;BME280;12763;55.802;37.404;2022-07-05T14:40:21;99432.75;;;26.06;67.56
24620;BME280;12763;55.802;37.404;2022-07-05T14:46:08;99468.72;;;25.69;68.30
24620;BME280;12763;55.802;37.404;2022-07-05T14:49:26;99456.16;;;25.76;67.45
24620;BME280;12763;55.802;37.404;2022-07-05T14:51:57;99492.06;;;25.97;66.94
24620;BME280;12763;55.802;37.404;2022-07-05T14:54:32;99528.31;;;25.32;69.92
24620;BME280;12763;55.802;37.404;2022-07-05T14:56:58;99521.53;;;24.92;75.50
24620;BME280;12763;55.802;37.404;2022-07-05T14:59:42;99517.09;;;24.73;75.18
24620;BME280;12763;55.802;37.404;2022-07-05T15:02:14;99509.28;;;25.10;72.26
24620;BME280;12763;55.802;37.404;2022-07-05T15:04:42;99500.28;;;25.22;71.54
24620;BME280;12763;55.802;37.404;2022-07-05T15:07:15;99491.06;;;25.30;70.74
24620;BME280;12763;55.802;37.404;2022-07-05T15:09:43;99490.84;;;25.54;69.44
24620;BME280;12763;55.802;37.404;2022-07-05T15:12:25;99474.63;;;25.46;69.80
24620;BME280;12763;55.802;37.404;2022-07-05T15:15:06;99476.91;;;25.57;70.41
24620;BME280;12763;55.802;37.404;2022-07-05T15:18:03;99473.09;;;25.76;67.49
24620;BME280;12763;55.802;37.404;2022-07-05T15:20:29;99477.47;;;25.82;66.32
24620;BME280;12763;55.802;37.404;2022-07-05T15:23:15;99470.53;;;25.65;66.53
24620;BME280;12763;55.802;37.404;2022-07-05T15:25:56;99462.56;;;25.67;68.28
24620;BME280;12763;55.802;37.404;2022-07-05T15:28:31;99457.69;;;25.82;68.29
24620;BME280;12763;55.802;37.404;2022-07-05T15:31:09;99438.16;;;25.72;70.08
24620;BME280;12763;55.802;37.404;2022-07-05T15:33:41;99449.31;;;25.54;70.76
24620;BME280;12763;55.802;37.404;2022-07-05T15:36:13;99441.16;;;25.53;70.65
24620;BME280;12763;55.802;37.404;2022-07-05T15:39:21;99438.13;;;25.36;72.06
24620;BME280;12763;55.802;37.404;2022-07-05T15:41:47;99429.84;;;25.53;71.43
24620;BME280;12763;55.802;37.404;2022-07-05T15:44:13;99426.72;;;25.54;72.09
24620;BME280;12763;55.802;37.404;2022-07-05T15:46:57;99432.97;;;25.65;71.26
24620;BME280;12763;55.802;37.404;2022-07-05T15:49:46;99437.91;;;25.82;71.39
24620;BME280;12763;55.802;37.404;2022-07-05T15:52:15;99424.47;;;25.87;69.80
24620;BME280;12763;55.802;37.404;2022-07-05T15:54:42;99429.59;;;25.63;70.15
24620;BME280;12763;55.802;37.404;2022-07-05T15:57:17;99415.53;;;25.49;71.82
24620;BME280;12763;55.802;37.404;2022-07-05T15:59:47;99412.81;;;25.44;72.63
24620;BME280;12763;55.802;37.404;2022-07-05T16:02:16;99408.13;;;25.40;73.17
24620;BME280;12763;55.802;37.404;2022-07-05T16:04:42;99411.78;;;25.40;72.92
24620;BME280;12763;55.802;37.404;2022-07-05T16:07:13;99407.97;;;25.81;71.82
24620;BME280;12763;55.802;37.404;2022-07-05T16:13:39;99409.88;;;26.16;71.12
24620;BME280;12763;55.802;37.404;2022-07-05T16:16:18;99412.47;;;26.04;71.07
24620;BME280;12763;55.802;37.404;2022-07-05T16:18:47;99419.53;;;25.93;71.01
24620;BME280;12763;55.802;37.404;2022-07-05T16:21:15;99417.84;;;25.92;70.41
24620;BME280;12763;55.802;37.404;2022-07-05T16:23:46;99416.31;;;25.86;69.53
24620;BME280;12763;55.802;37.404;2022-07-05T16:26:44;99423.91;;;25.54;69.43
24620;BME280;12763;55.802;37.404;2022-07-05T16:29:25;99416.69;;;25.48;69.18
24620;BME280;12763;55.802;37.404;2022-07-05T16:31:51;99423.91;;;25.54;68.23
24620;BME280;12763;55.802;37.404;2022-07-05T16:34:26;99427.31;;;25.65;68.28
24620;BME280;12763;55.802;37.404;2022-07-05T16:36:52;99413.34;;;25.68;67.78
24620;BME280;12763;55.802;37.404;2022-07-05T16:39:18;99422.94;;;25.59;68.31
24620;BME280;12763;55.802;37.404;2022-07-05T16:41:44;99418.75;;;25.56;68.74
24620;BME280;12763;55.802;37.404;2022-07-05T16:44:13;99424.00;;;25.49;69.45
24620;BME280;12763;55.802;37.404;2022-07-05T16:47:00;99416.38;;;25.50;70.46
24620;BME280;12763;55.802;37.404;2022-07-05T16:49:32;99416.78;;;25.43;70.94
24620;BME280;12763;55.802;37.404;2022-07-05T16:52:32;99420.81;;;25.64;71.93
24620;BME280;12763;55.802;37.404;2022-07-05T16:55:04;99415.75;;;25.39;72.81
24620;BME280;12763;55.802;37.404;2022-07-05T16:57:36;99435.09;;;25.46;72.76
24620;BME280;12763;55.802;37.404;2022-07-05T17:00:09;99436.13;;;25.50;73.10
24620;BME280;12763;55.802;37.404;2022-07-05T17:02:41;99420.13;;;25.45;73.92
24620;BME280;12763;55.802;37.404;2022-07-05T17:05:13;99435.25;;;25.63;72.66
24620;BME280;12763;55.802;37.404;2022-07-05T17:07:42;99433.66;;;25.93;70.64
24620;BME280;12763;55.802;37.404;2022-07-05T17:10:26;99426.28;;;25.83;68.97
24620;BME280;12763;55.802;37.404;2022-07-05T17:13:19;99417.72;;;25.97;69.96
24620;BME280;12763;55.802;37.404;2022-07-05T17:15:58;99412.72;;;25.94;70.03
24620;BME280;12763;55.802;37.404;2022-07-05T17:18:46;99418.13;;;26.04;69.33
24620;BME280;12763;55.802;37.404;2022-07-05T17:21:27;99411.31;;;25.83;69.18
24620;BME280;12763;55.802;37.404;2022-07-05T17:24:21;99405.91;;;25.73;69.08
24620;BME280;12763;55.802;37.404;2022-07-05T17:26:56;99399.81;;;25.79;69.97
24620;BME280;12763;55.802;37.404;2022-07-05T17:30:02;99397.31;;;25.78;69.87
24620;BME280;12763;55.802;37.404;2022-07-05T17:33:15;99401.41;;;25.94;69.42
24620;BME280;12763;55.802;37.404;2022-07-05T17:35:42;99394.72;;;26.12;68.37
24620;BME280;12763;55.802;37.404;2022-07-05T17:38:07;99392.41;;;25.92;69.49
24620;BME280;12763;55.802;37.404;2022-07-05T17:40:34;99392.63;;;25.95;69.42
24620;BME280;12763;55.802;37.404;2022-07-05T17:43:06;99391.88;;;26.12;69.47
24620;BME280;12763;55.802;37.404;2022-07-05T17:45:57;99381.47;;;25.99;69.89
24620;BME280;12763;55.802;37.404;2022-07-05T17:48:23;99385.22;;;25.86;69.74
24620;BME280;12763;55.802;37.404;2022-07-05T17:50:55;99376.88;;;25.81;69.55
24620;BME280;12763;55.802;37.404;2022-07-05T17:53:21;99390.81;;;25.77;68.86
24620;BME280;12763;55.802;37.404;2022-07-05T17:55:47;99394.81;;;25.76;68.89
24620;BME280;12763;55.802;37.404;2022-07-05T17:58:13;99405.59;;;25.74;69.33
24620;BME280;12763;55.802;37.404;2022-07-05T18:00:48;99403.44;;;26.02;69.19
24620;BME280;12763;55.802;37.404;2022-07-05T18:03:46;99408.09;;;25.98;69.00
24620;BME280;12763;55.802;37.404;2022-07-05T18:06:16;99408.94;;;25.98;68.32
24620;BME280;12763;55.802;37.404;2022-07-05T18:08:52;99403.72;;;25.92;69.21
24620;BME280;12763;55.802;37.404;2022-07-05T18:11:17;99395.25;;;26.14;68.84
24620;BME280;12763;55.802;37.404;2022-07-05T18:13:44;99401.53;;;25.89;68.45
24620;BME280;12763;55.802;37.404;2022-07-05T18:16:10;99399.91;;;25.96;68.97
24620;BME280;12763;55.802;37.404;2022-07-05T18:18:51;99388.66;;;26.05;68.89